createdAt,value
2018-04-27T00:00:11.792Z,82.88
2018-04-27T00:01:12.019Z,82.50
2018-04-27T00:02:12.244Z,82.69
2018-04-27T00:03:12.473Z,82.69
2018-04-27T00:04:12.699Z,82.50
2018-04-27T00:05:12.944Z,82.40
2018-04-27T00:06:13.151Z,82.12
2018-04-27T00:07:13.380Z,81.84
2018-04-27T00:08:13.609Z,81.45
2018-04-27T00:09:13.830Z,80.88
2018-04-27T00:10:14.058Z,80.98
2018-04-27T00:11:14.288Z,81.45
2018-04-27T00:12:14.516Z,81.17
2018-04-27T00:13:14.739Z,81.55
2018-04-27T00:14:14.970Z,80.69
2018-04-27T00:15:15.202Z,80.98
2018-04-27T00:16:15.422Z,80.98
2018-04-27T00:17:15.646Z,80.69
2018-04-27T00:18:15.880Z,80.51
2018-04-27T00:19:16.102Z,80.60
2018-04-27T00:20:16.327Z,80.60
2018-04-27T00:21:16.556Z,80.13
2018-04-27T00:22:16.786Z,80.51
2018-04-27T00:23:17.011Z,80.03
2018-04-27T00:24:17.239Z,80.13
2018-04-27T00:25:17.457Z,80.13
2018-04-27T00:26:17.678Z,80.60
2018-04-27T00:27:17.912Z,80.32
2018-04-27T00:28:18.133Z,80.41
2018-04-27T00:29:18.359Z,80.32
2018-04-27T00:30:18.587Z,79.65
2018-04-27T00:31:18.813Z,79.84
2018-04-27T00:32:19.044Z,79.55
2018-04-27T00:33:19.269Z,79.36
2018-04-27T00:34:19.503Z,80.13
2018-04-27T00:35:19.722Z,80.41
2018-04-27T00:36:19.949Z,80.60
2018-04-27T00:37:20.175Z,80.60
2018-04-27T00:38:20.401Z,80.69
2018-04-27T00:39:20.627Z,80.69
2018-04-27T00:40:20.854Z,81.55
2018-04-27T00:41:21.081Z,80.79
2018-04-27T00:42:21.306Z,80.51
2018-04-27T00:43:21.531Z,80.51
2018-04-27T00:44:21.757Z,80.98
2018-04-27T00:45:21.984Z,81.74
2018-04-27T00:46:22.213Z,81.93
2018-04-27T00:47:22.444Z,82.03
2018-04-27T00:48:22.673Z,82.88
2018-04-27T00:49:22.894Z,83.50
2018-04-27T00:50:23.122Z,84.64
2018-04-27T00:51:23.346Z,84.30
2018-04-27T00:52:23.575Z,84.36
2018-04-27T00:53:23.801Z,84.07
2018-04-27T00:54:24.030Z,84.17
2018-04-27T00:55:24.259Z,84.36
2018-04-27T00:56:24.483Z,84.36
2018-04-27T00:57:24.708Z,83.64
2018-04-27T00:58:24.932Z,82.78
2018-04-27T00:59:25.160Z,82.21
2018-04-27T01:00:25.383Z,82.59
2018-04-27T01:01:25.611Z,82.59
2018-04-27T01:02:25.836Z,82.50
2018-04-27T01:03:26.063Z,82.59
2018-04-27T01:04:26.290Z,81.84
2018-04-27T01:05:26.516Z,82.31
2018-04-27T01:06:26.743Z,82.21
2018-04-27T01:07:26.965Z,81.26
2018-04-27T01:08:27.192Z,81.74
2018-04-27T01:09:27.418Z,82.21
2018-04-27T01:10:27.645Z,81.84
2018-04-27T01:11:27.873Z,81.93
2018-04-27T01:12:28.111Z,81.93
2018-04-27T01:13:28.326Z,81.74
2018-04-27T01:14:28.553Z,82.27
2018-04-27T01:15:28.782Z,82.65
2018-04-27T01:16:29.010Z,82.84
2018-04-27T01:17:29.235Z,82.17
2018-04-27T01:18:29.459Z,82.27
2018-04-27T01:19:29.690Z,81.84
2018-04-27T01:20:29.913Z,82.40
2018-04-27T01:21:30.139Z,82.74
2018-04-27T01:22:30.367Z,83.12
2018-04-27T01:23:30.599Z,82.74
2018-04-27T01:24:30.823Z,83.40
2018-04-27T01:25:31.050Z,84.36
2018-04-27T01:26:31.273Z,83.88
2018-04-27T01:27:31.494Z,83.83
2018-04-27T01:28:31.719Z,83.88
2018-04-27T01:29:31.946Z,84.17
2018-04-27T01:30:32.177Z,84.26
2018-04-27T01:31:32.407Z,84.45
2018-04-27T01:32:32.633Z,83.69
2018-04-27T01:33:32.859Z,83.59
2018-04-27T01:34:33.085Z,83.88
2018-04-27T01:35:33.315Z,83.78
2018-04-27T01:36:33.539Z,83.59
2018-04-27T01:37:33.766Z,83.88
2018-04-27T01:38:33.995Z,83.88
2018-04-27T01:39:34.237Z,84.64
2018-04-27T01:40:34.444Z,83.50
2018-04-27T01:41:34.670Z,83.22
2018-04-27T01:42:34.899Z,83.40
2018-04-27T01:43:35.125Z,83.69
2018-04-27T01:44:35.353Z,83.69
2018-04-27T01:45:35.580Z,83.59
2018-04-27T01:46:35.808Z,84.07
2018-04-27T01:47:36.035Z,84.36
2018-04-27T01:48:36.254Z,84.45
2018-04-27T01:49:36.483Z,85.11
2018-04-27T01:50:36.707Z,85.30
2018-04-27T01:51:36.933Z,85.68
2018-04-27T01:52:37.158Z,85.78
2018-04-27T01:53:37.387Z,85.02
2018-04-27T01:54:37.609Z,84.83
2018-04-27T01:55:37.838Z,84.36
2018-04-27T01:56:38.061Z,83.69
2018-04-27T01:57:38.291Z,83.97
2018-04-27T01:58:38.523Z,84.07
2018-04-27T01:59:38.748Z,83.40
2018-04-27T02:00:38.972Z,84.07
2018-04-27T02:01:39.197Z,83.78
2018-04-27T02:02:39.417Z,83.69
2018-04-27T02:03:39.644Z,83.59
2018-04-27T02:04:39.871Z,83.59
2018-04-27T02:05:40.100Z,83.50
2018-04-27T02:06:40.329Z,84.07
2018-04-27T02:07:40.553Z,83.31
2018-04-27T02:08:40.783Z,83.40
2018-04-27T02:09:41.002Z,83.31
2018-04-27T02:10:41.227Z,83.40
2018-04-27T02:11:41.453Z,83.40
2018-04-27T02:12:41.681Z,83.97
2018-04-27T02:13:41.906Z,83.50
2018-04-27T02:14:42.129Z,83.78
2018-04-27T02:15:42.356Z,83.69
2018-04-27T02:16:42.587Z,83.88
2018-04-27T02:17:42.807Z,83.69
2018-04-27T02:18:43.033Z,83.97
2018-04-27T02:19:43.261Z,83.97
2018-04-27T02:20:43.488Z,84.17
2018-04-27T02:21:43.711Z,84.07
2018-04-27T02:22:43.939Z,83.97
2018-04-27T02:23:44.159Z,83.88
2018-04-27T02:24:44.389Z,84.07
2018-04-27T02:25:44.613Z,83.69
2018-04-27T02:26:44.839Z,83.59
2018-04-27T02:27:45.064Z,83.78
2018-04-27T02:28:45.291Z,84.07
2018-04-27T02:29:45.519Z,84.07
2018-04-27T02:30:45.739Z,84.26
2018-04-27T02:31:45.964Z,83.59
2018-04-27T02:32:46.190Z,84.17
2018-04-27T02:33:46.416Z,84.55
2018-04-27T02:34:46.643Z,84.31
2018-04-27T02:35:46.869Z,84.41
2018-04-27T02:36:47.096Z,84.17
2018-04-27T02:37:47.320Z,84.59
2018-04-27T02:38:47.547Z,84.41
2018-04-27T02:39:47.777Z,85.26
2018-04-27T02:40:48.000Z,85.17
2018-04-27T02:41:48.233Z,84.41
2018-04-27T02:42:48.455Z,84.41
2018-04-27T02:43:48.687Z,84.41
2018-04-27T02:44:48.902Z,83.36
2018-04-27T02:45:49.139Z,84.41
2018-04-27T02:46:49.355Z,84.31
2018-04-27T02:47:49.585Z,84.69
2018-04-27T02:48:49.815Z,84.78
2018-04-27T02:49:50.041Z,84.98
2018-04-27T02:50:50.267Z,84.98
2018-04-27T02:51:50.495Z,84.88
2018-04-27T02:52:50.714Z,84.69
2018-04-27T02:53:50.951Z,84.50
2018-04-27T02:54:51.177Z,83.36
2018-04-27T02:55:51.403Z,83.55
2018-04-27T02:56:51.625Z,83.84
2018-04-27T02:57:51.850Z,84.31
2018-04-27T02:58:52.079Z,84.03
2018-04-27T02:59:52.306Z,84.12
2018-04-27T03:00:52.536Z,84.03
2018-04-27T03:01:52.766Z,84.69
2018-04-27T03:02:52.989Z,85.36
2018-04-27T03:03:53.215Z,85.83
2018-04-27T03:04:53.439Z,85.64
2018-04-27T03:05:53.668Z,85.64
2018-04-27T03:06:53.895Z,85.26
2018-04-27T03:07:54.124Z,84.88
2018-04-27T03:08:54.345Z,84.41
2018-04-27T03:09:54.574Z,84.69
2018-04-27T03:10:54.800Z,84.59
2018-04-27T03:11:55.033Z,84.22
2018-04-27T03:12:55.250Z,84.31
2018-04-27T03:13:55.479Z,84.12
2018-04-27T03:14:55.703Z,84.50
2018-04-27T03:15:55.928Z,84.98
2018-04-27T03:16:56.155Z,84.98
2018-04-27T03:17:56.380Z,85.36
2018-04-27T03:18:56.606Z,85.93
2018-04-27T03:19:56.839Z,86.02
2018-04-27T03:20:57.061Z,86.02
2018-04-27T03:21:57.285Z,86.21
2018-04-27T03:22:57.514Z,87.16
2018-04-27T03:23:57.789Z,86.78
2018-04-27T03:24:57.969Z,86.78
2018-04-27T03:25:58.191Z,86.68
2018-04-27T03:26:58.416Z,86.59
2018-04-27T03:27:58.643Z,85.64
2018-04-27T03:28:58.869Z,84.88
2018-04-27T03:29:59.095Z,85.17
2018-04-27T03:30:59.321Z,85.07
2018-04-27T03:31:59.547Z,84.78
2018-04-27T03:32:59.772Z,84.59
2018-04-27T03:33:59.995Z,84.59
2018-04-27T03:35:00.220Z,84.50
2018-04-27T03:36:00.446Z,84.69
2018-04-27T03:37:00.671Z,84.59
2018-04-27T03:38:00.897Z,84.59
2018-04-27T03:39:01.129Z,84.41
2018-04-27T03:40:01.350Z,84.59
2018-04-27T03:41:01.576Z,84.69
2018-04-27T03:42:01.801Z,84.69
2018-04-27T03:43:02.027Z,84.31
2018-04-27T03:44:02.252Z,84.41
2018-04-27T03:45:02.478Z,84.31
2018-04-27T03:46:02.702Z,84.31
2018-04-27T03:47:02.930Z,84.69
2018-04-27T03:48:03.156Z,84.98
2018-04-27T03:49:03.383Z,85.74
2018-04-27T03:50:03.607Z,85.83
2018-04-27T03:51:03.833Z,85.83
2018-04-27T03:52:04.065Z,84.88
2018-04-27T03:53:04.285Z,84.69
2018-04-27T03:54:04.516Z,85.07
2018-04-27T03:55:04.741Z,85.36
2018-04-27T03:56:04.966Z,84.41
2018-04-27T03:57:05.190Z,84.69
2018-04-27T03:58:05.410Z,84.22
2018-04-27T03:59:05.641Z,84.31
2018-04-27T04:00:05.863Z,84.22
2018-04-27T04:01:06.136Z,84.59
2018-04-27T04:02:06.316Z,84.69
2018-04-27T04:03:06.540Z,84.31
2018-04-27T04:04:06.768Z,84.03
2018-04-27T04:05:06.993Z,84.12
2018-04-27T04:06:07.213Z,83.65
2018-04-27T04:07:07.441Z,83.84
2018-04-27T04:08:07.665Z,84.12
2018-04-27T04:09:07.895Z,84.03
2018-04-27T04:10:08.119Z,84.69
2018-04-27T04:11:08.341Z,84.22
2018-04-27T04:12:08.572Z,84.41
2018-04-27T04:13:08.798Z,84.31
2018-04-27T04:14:09.026Z,84.50
2018-04-27T04:15:09.253Z,85.07
2018-04-27T04:16:09.477Z,84.98
2018-04-27T04:17:09.706Z,84.78
2018-04-27T04:18:09.931Z,84.69
2018-04-27T04:19:10.156Z,84.41
2018-04-27T04:20:10.380Z,85.36
2018-04-27T04:21:10.610Z,85.07
2018-04-27T04:22:10.833Z,85.74
2018-04-27T04:23:11.059Z,85.17
2018-04-27T04:24:11.292Z,85.74
2018-04-27T04:25:11.512Z,86.02
2018-04-27T04:26:11.739Z,84.88
2018-04-27T04:27:11.963Z,85.26
2018-04-27T04:28:12.188Z,84.12
2018-04-27T04:29:12.416Z,84.31
2018-04-27T04:30:12.640Z,84.50
2018-04-27T04:31:12.865Z,84.50
2018-04-27T04:32:13.090Z,83.94
2018-04-27T04:33:13.315Z,84.03
2018-04-27T04:34:13.542Z,84.03
2018-04-27T04:35:13.773Z,83.97
2018-04-27T04:36:13.995Z,83.78
2018-04-27T04:37:14.223Z,83.69
2018-04-27T04:38:14.481Z,83.69
2018-04-27T04:39:14.675Z,83.59
2018-04-27T04:40:14.907Z,83.97
2018-04-27T04:41:15.128Z,82.74
2018-04-27T04:42:15.357Z,82.36
2018-04-27T04:43:15.614Z,82.17
2018-04-27T04:44:15.807Z,82.36
2018-04-27T04:45:16.033Z,81.88
2018-04-27T04:46:16.260Z,81.65
2018-04-27T04:47:16.489Z,80.51
2018-04-27T04:48:16.716Z,80.32
2018-04-27T04:49:16.938Z,79.97
2018-04-27T04:50:17.171Z,79.12
2018-04-27T04:51:17.397Z,78.55
2018-04-27T04:52:17.625Z,77.83
2018-04-27T04:53:17.855Z,77.55
2018-04-27T04:54:18.079Z,76.88
2018-04-27T04:55:18.307Z,76.59
2018-04-27T04:56:18.537Z,76.40
2018-04-27T04:57:18.767Z,75.55
2018-04-27T04:58:18.993Z,74.88
2018-04-27T04:59:19.216Z,75.07
2018-04-27T05:00:19.442Z,75.74
2018-04-27T05:01:19.693Z,75.36
2018-04-27T05:02:19.897Z,74.92
2018-04-27T05:03:20.124Z,74.54
2018-04-27T05:04:20.352Z,74.63
2018-04-27T05:05:20.577Z,75.17
2018-04-27T05:06:20.810Z,75.45
2018-04-27T05:07:21.037Z,75.40
2018-04-27T05:08:21.347Z,74.73
2018-04-27T05:09:21.497Z,74.82
2018-04-27T05:10:21.724Z,74.54
2018-04-27T05:11:21.951Z,74.98
2018-04-27T05:12:22.184Z,74.69
2018-04-27T05:13:22.466Z,75.11
2018-04-27T05:14:22.635Z,74.44
2018-04-27T05:15:22.866Z,74.44
2018-04-27T05:16:23.093Z,74.54
2018-04-27T05:17:23.327Z,74.26
2018-04-27T05:18:23.553Z,74.63
2018-04-27T05:19:23.779Z,74.63
2018-04-27T05:20:24.006Z,74.73
2018-04-27T05:21:24.236Z,74.98
2018-04-27T05:22:24.463Z,75.55
2018-04-27T05:23:24.690Z,76.69
2018-04-27T05:24:24.920Z,77.03
2018-04-27T05:25:25.146Z,77.64
2018-04-27T05:26:25.371Z,77.55
2018-04-27T05:27:25.601Z,77.41
2018-04-27T05:28:25.828Z,78.74
2018-04-27T05:29:26.055Z,78.93
2018-04-27T05:30:26.282Z,78.55
2018-04-27T05:31:26.512Z,78.93
2018-04-27T05:32:26.725Z,79.03
2018-04-27T05:33:26.956Z,78.83
2018-04-27T05:34:27.185Z,78.17
2018-04-27T05:35:27.412Z,78.11
2018-04-27T05:36:27.639Z,78.02
2018-04-27T05:37:27.867Z,77.55
2018-04-27T05:38:28.096Z,77.45
2018-04-27T05:39:28.323Z,76.78
2018-04-27T05:40:28.549Z,76.21
2018-04-27T05:41:28.778Z,76.88
2018-04-27T05:42:29.008Z,76.44
2018-04-27T05:43:29.235Z,75.96
2018-04-27T05:44:29.466Z,74.96
2018-04-27T05:45:29.691Z,74.10
2018-04-27T05:46:29.985Z,72.81
2018-04-27T05:47:30.147Z,71.13
2018-04-27T05:48:30.374Z,69.51
2018-04-27T05:49:30.600Z,68.30
2018-04-27T05:50:30.828Z,67.20
2018-04-27T05:51:31.057Z,66.44
2018-04-27T05:52:31.283Z,64.65
2018-04-27T05:53:31.509Z,63.35
2018-04-27T05:54:31.738Z,62.30
2018-04-27T05:55:32.028Z,62.02
2018-04-27T05:56:32.195Z,61.73
2018-04-27T05:57:32.422Z,60.71
2018-04-27T05:58:32.652Z,60.52
2018-04-27T05:59:32.878Z,59.69
2018-04-27T06:00:33.110Z,58.26
2018-04-27T06:01:33.339Z,58.16
2018-04-27T06:02:33.568Z,57.26
2018-04-27T06:03:33.800Z,56.79
2018-04-27T06:04:34.036Z,55.74
2018-04-27T06:05:34.263Z,55.10
2018-04-27T06:06:34.492Z,53.40
2018-04-27T06:07:34.726Z,51.99
2018-04-27T06:08:34.952Z,50.74
2018-04-27T06:09:35.184Z,50.29
2018-04-27T06:10:35.413Z,50.10
2018-04-27T06:11:35.644Z,48.95
2018-04-27T06:12:35.876Z,48.38
2018-04-27T06:13:36.102Z,48.38
2018-04-27T06:14:36.332Z,48.28
2018-04-27T06:15:36.569Z,50.29
2018-04-27T06:16:36.796Z,48.49
2018-04-27T06:17:37.034Z,47.80
2018-04-27T06:18:37.263Z,48.38
2018-04-27T06:19:37.495Z,50.17
2018-04-27T06:20:37.725Z,51.17
2018-04-27T06:21:37.956Z,52.03
2018-04-27T06:22:38.187Z,52.61
2018-04-27T06:23:38.419Z,52.70
2018-04-27T06:24:38.650Z,52.80
2018-04-27T06:25:38.881Z,52.22
2018-04-27T06:26:39.115Z,52.58
2018-04-27T06:27:39.345Z,54.08
2018-04-27T06:28:39.574Z,56.38
2018-04-27T06:29:39.806Z,56.67
2018-04-27T06:30:40.037Z,56.57
2018-04-27T06:31:40.327Z,56.25
2018-04-27T06:32:40.496Z,57.87
2018-04-27T06:33:40.728Z,57.78
2018-04-27T06:34:40.955Z,57.59
2018-04-27T06:35:41.187Z,56.47
2018-04-27T06:36:41.416Z,56.38
2018-04-27T06:37:41.651Z,56.50
2018-04-27T06:38:41.895Z,56.40
2018-04-27T06:39:42.111Z,56.31
2018-04-27T06:40:42.340Z,54.97
2018-04-27T06:41:42.569Z,55.16
2018-04-27T06:42:42.798Z,54.59
2018-04-27T06:43:43.027Z,54.21
2018-04-27T06:44:43.264Z,53.56
2018-04-27T06:45:43.568Z,53.94
2018-04-27T06:46:43.718Z,54.94
2018-04-27T06:47:43.948Z,55.07
2018-04-27T06:48:44.177Z,54.94
2018-04-27T06:49:44.414Z,54.94
2018-04-27T06:50:44.651Z,55.32
2018-04-27T06:51:44.869Z,55.45
2018-04-27T06:52:45.098Z,55.26
2018-04-27T06:53:45.408Z,55.35
2018-04-27T06:54:45.560Z,55.71
2018-04-27T06:55:45.791Z,56.18
2018-04-27T06:56:46.020Z,55.13
2018-04-27T06:57:46.248Z,56.09
2018-04-27T06:58:46.477Z,56.38
2018-04-27T06:59:46.710Z,57.14
2018-04-27T07:00:46.947Z,56.57
2018-04-27T07:01:47.173Z,57.53
2018-04-27T07:02:47.406Z,58.54
2018-04-27T07:03:47.637Z,58.93
2018-04-27T07:04:47.866Z,59.12
2018-04-27T07:05:48.103Z,59.31
2018-04-27T07:06:48.327Z,58.64
2018-04-27T07:07:48.554Z,59.41
2018-04-27T07:08:48.784Z,59.69
2018-04-27T07:09:49.012Z,60.71
2018-04-27T07:10:49.242Z,60.04
2018-04-27T07:11:49.471Z,59.95
2018-04-27T07:12:49.708Z,59.95
2018-04-27T07:13:49.942Z,59.85
2018-04-27T07:14:50.173Z,59.56
2018-04-27T07:15:50.400Z,60.52
2018-04-27T07:16:50.646Z,59.88
2018-04-27T07:17:50.864Z,59.28
2018-04-27T07:18:51.095Z,58.83
2018-04-27T07:19:51.325Z,58.54
2018-04-27T07:20:51.555Z,58.45
2018-04-27T07:21:51.791Z,59.50
2018-04-27T07:22:52.015Z,58.45
2018-04-27T07:23:52.246Z,59.59
2018-04-27T07:24:52.475Z,59.31
2018-04-27T07:25:52.739Z,58.64
2018-04-27T07:26:52.939Z,58.64
2018-04-27T07:27:53.168Z,58.93
2018-04-27T07:28:53.398Z,58.19
2018-04-27T07:29:53.629Z,58.19
2018-04-27T07:30:53.857Z,57.14
2018-04-27T07:31:54.083Z,57.14
2018-04-27T07:32:54.316Z,56.38
2018-04-27T07:33:54.543Z,56.67
2018-04-27T07:34:54.771Z,57.33
2018-04-27T07:35:54.999Z,56.18
2018-04-27T07:36:55.230Z,56.18
2018-04-27T07:37:55.461Z,56.40
2018-04-27T07:38:55.692Z,56.31
2018-04-27T07:39:55.924Z,56.21
2018-04-27T07:40:56.171Z,56.12
2018-04-27T07:41:56.400Z,56.69
2018-04-27T07:42:56.637Z,55.64
2018-04-27T07:43:56.859Z,55.26
2018-04-27T07:44:57.094Z,55.29
2018-04-27T07:45:57.328Z,55.10
2018-04-27T07:46:57.559Z,54.90
2018-04-27T07:47:57.796Z,54.90
2018-04-27T07:48:58.016Z,54.61
2018-04-27T07:49:58.246Z,55.10
2018-04-27T07:50:58.479Z,54.71
2018-04-27T07:51:58.708Z,54.43
2018-04-27T07:52:58.945Z,54.93
2018-04-27T07:53:59.172Z,54.07
2018-04-27T07:54:59.408Z,53.20
2018-04-27T07:55:59.634Z,53.88
2018-04-27T07:56:59.870Z,53.85
2018-04-27T07:58:00.098Z,53.11
2018-04-27T07:59:00.329Z,54.07
2018-04-27T08:00:00.559Z,54.36
2018-04-27T08:01:00.789Z,53.97
2018-04-27T08:02:01.045Z,54.36
2018-04-27T08:03:01.272Z,54.45
2018-04-27T08:04:01.503Z,54.33
2018-04-27T08:05:01.734Z,55.22
2018-04-27T08:06:01.964Z,54.55
2018-04-27T08:07:02.195Z,55.22
2018-04-27T08:08:02.430Z,54.83
2018-04-27T08:09:02.653Z,54.64
2018-04-27T08:10:02.889Z,54.67
2018-04-27T08:11:03.123Z,53.11
2018-04-27T08:12:03.349Z,53.40
2018-04-27T08:13:03.586Z,54.26
2018-04-27T08:14:03.812Z,53.69
2018-04-27T08:15:04.050Z,54.45
2018-04-27T08:16:04.280Z,54.26
2018-04-27T08:17:04.512Z,54.07
2018-04-27T08:18:04.746Z,54.26
2018-04-27T08:19:04.971Z,54.00
2018-04-27T08:20:05.204Z,53.93
2018-04-27T08:21:05.444Z,52.40
2018-04-27T08:22:05.658Z,52.30
2018-04-27T08:23:05.878Z,52.59
2018-04-27T08:24:06.108Z,51.54
2018-04-27T08:25:06.337Z,50.87
2018-04-27T08:26:06.571Z,53.04
2018-04-27T08:27:06.803Z,52.01
2018-04-27T08:28:07.040Z,52.59
2018-04-27T08:29:07.269Z,52.01
2018-04-27T08:30:07.499Z,51.92
2018-04-27T08:31:07.733Z,52.11
2018-04-27T08:32:07.966Z,51.25
2018-04-27T08:33:08.198Z,50.58
2018-04-27T08:34:08.433Z,51.92
2018-04-27T08:35:08.671Z,51.34
2018-04-27T08:36:08.978Z,49.45
2018-04-27T08:37:09.130Z,49.33
2018-04-27T08:38:09.363Z,50.00
2018-04-27T08:39:09.597Z,51.46
2018-04-27T08:40:09.825Z,50.89
2018-04-27T08:41:10.055Z,50.12
2018-04-27T08:42:10.286Z,49.45
2018-04-27T08:43:10.518Z,50.22
2018-04-27T08:44:10.749Z,48.52
2018-04-27T08:45:10.980Z,48.43
2018-04-27T08:46:11.207Z,49.29
2018-04-27T08:47:11.445Z,49.76
2018-04-27T08:48:11.677Z,50.05
2018-04-27T08:49:11.909Z,49.96
2018-04-27T08:50:12.137Z,48.49
2018-04-27T08:51:12.369Z,48.49
2018-04-27T08:52:12.605Z,48.43
2018-04-27T08:53:12.832Z,49.29
2018-04-27T08:54:13.068Z,48.88
2018-04-27T08:55:13.296Z,49.74
2018-04-27T08:56:13.527Z,48.52
2018-04-27T08:57:13.762Z,48.49
2018-04-27T08:58:13.994Z,49.16
2018-04-27T08:59:14.225Z,50.63
2018-04-27T09:00:14.458Z,49.48
2018-04-27T09:01:14.692Z,49.21
2018-04-27T09:02:14.929Z,48.33
2018-04-27T09:03:15.152Z,48.52
2018-04-27T09:04:15.396Z,50.34
2018-04-27T09:05:15.619Z,48.90
2018-04-27T09:06:15.862Z,47.77
2018-04-27T09:07:16.086Z,46.62
2018-04-27T09:08:16.319Z,46.89
2018-04-27T09:09:16.549Z,46.98
2018-04-27T09:10:16.777Z,50.34
2018-04-27T09:11:17.009Z,50.92
2018-04-27T09:12:17.242Z,48.54
2018-04-27T09:13:17.481Z,47.49
2018-04-27T09:14:17.707Z,47.49
2018-04-27T09:15:17.943Z,47.49
2018-04-27T09:16:18.276Z,46.72
2018-04-27T09:17:18.409Z,46.62
2018-04-27T09:18:18.641Z,47.68
2018-04-27T09:19:18.874Z,46.24
2018-04-27T09:20:19.115Z,46.24
2018-04-27T09:21:19.339Z,46.24
2018-04-27T09:22:19.583Z,48.35
2018-04-27T09:23:19.809Z,48.80
2018-04-27T09:24:20.038Z,47.37
2018-04-27T09:25:20.275Z,48.23
2018-04-27T09:26:20.505Z,47.56
2018-04-27T09:27:20.738Z,48.61
2018-04-27T09:28:20.973Z,47.56
2018-04-27T09:29:21.205Z,47.77
2018-04-27T09:30:21.436Z,48.25
2018-04-27T09:31:21.673Z,46.62
2018-04-27T09:32:21.915Z,45.57
2018-04-27T09:33:22.136Z,45.37
2018-04-27T09:34:22.372Z,46.07
2018-04-27T09:35:22.598Z,45.78
2018-04-27T09:36:22.832Z,44.63
2018-04-27T09:37:23.097Z,43.70
2018-04-27T09:38:23.297Z,43.02
2018-04-27T09:39:23.532Z,43.60
2018-04-27T09:40:23.762Z,43.48
2018-04-27T09:41:23.997Z,43.48
2018-04-27T09:42:24.235Z,45.09
2018-04-27T09:43:24.461Z,46.53
2018-04-27T09:44:24.693Z,45.37
2018-04-27T09:45:24.930Z,45.47
2018-04-27T09:46:25.161Z,45.28
2018-04-27T09:47:25.393Z,47.20
2018-04-27T09:48:25.626Z,46.34
2018-04-27T09:49:25.911Z,47.10
2018-04-27T09:50:26.087Z,45.37
2018-04-27T09:51:26.321Z,44.44
2018-04-27T09:52:26.551Z,43.87
2018-04-27T09:53:26.778Z,44.27
2018-04-27T09:54:27.009Z,43.57
2018-04-27T09:55:27.242Z,43.87
2018-04-27T09:56:27.471Z,43.96
2018-04-27T09:57:27.770Z,43.88
2018-04-27T09:58:27.933Z,43.31
2018-04-27T09:59:28.166Z,43.40
2018-04-27T10:00:28.396Z,43.40
2018-04-27T10:01:28.631Z,44.94
2018-04-27T10:02:28.860Z,43.88
2018-04-27T10:03:29.091Z,42.35
2018-04-27T10:04:29.326Z,41.70
2018-04-27T10:05:29.560Z,41.10
2018-04-27T10:06:29.793Z,42.18
2018-04-27T10:07:30.031Z,41.77
2018-04-27T10:08:30.260Z,42.16
2018-04-27T10:09:30.502Z,42.35
2018-04-27T10:10:30.736Z,42.25
2018-04-27T10:11:30.977Z,42.76
2018-04-27T10:12:31.200Z,44.38
2018-04-27T10:13:31.431Z,43.91
2018-04-27T10:14:31.665Z,43.23
2018-04-27T10:15:31.901Z,42.18
2018-04-27T10:16:32.124Z,42.37
2018-04-27T10:17:32.372Z,42.49
2018-04-27T10:18:32.603Z,43.64
2018-04-27T10:19:32.833Z,42.41
2018-04-27T10:20:33.094Z,41.05
2018-04-27T10:21:33.303Z,39.72
2018-04-27T10:22:33.537Z,38.85
2018-04-27T10:23:33.774Z,38.76
2018-04-27T10:24:33.998Z,39.51
2018-04-27T10:25:34.298Z,39.61
2018-04-27T10:26:34.496Z,38.54
2018-04-27T10:27:34.729Z,39.49
2018-04-27T10:28:34.968Z,39.51
2018-04-27T10:29:35.194Z,38.26
2018-04-27T10:30:35.429Z,38.35
2018-04-27T10:31:35.679Z,38.91
2018-04-27T10:32:35.893Z,38.14
2018-04-27T10:33:36.128Z,37.76
2018-04-27T10:34:36.358Z,39.95
2018-04-27T10:35:36.590Z,39.76
2018-04-27T10:36:36.890Z,39.85
2018-04-27T10:37:37.076Z,41.29
2018-04-27T10:38:37.307Z,41.39
2018-04-27T10:39:37.542Z,43.60
2018-04-27T10:40:37.773Z,42.56
2018-04-27T10:41:38.004Z,40.45
2018-04-27T10:42:38.238Z,41.12
2018-04-27T10:43:38.468Z,40.33
2018-04-27T10:44:38.699Z,39.78
2018-04-27T10:45:38.931Z,39.76
2018-04-27T10:46:39.172Z,40.16
2018-04-27T10:47:39.402Z,39.87
2018-04-27T10:48:39.630Z,39.47
2018-04-27T10:49:39.865Z,40.06
2018-04-27T10:50:40.096Z,39.68
2018-04-27T10:51:40.329Z,38.43
2018-04-27T10:52:40.563Z,38.74
2018-04-27T10:53:40.796Z,37.59
2018-04-27T10:54:41.033Z,39.79
2018-04-27T10:55:41.264Z,37.32
2018-04-27T10:56:41.503Z,37.60
2018-04-27T10:57:41.735Z,36.24
2018-04-27T10:58:41.962Z,37.39
2018-04-27T10:59:42.206Z,37.01
2018-04-27T11:00:42.432Z,37.49
2018-04-27T11:01:42.667Z,38.07
2018-04-27T11:02:42.898Z,37.66
2018-04-27T11:03:43.134Z,39.49
2018-04-27T11:04:43.364Z,38.51
2018-04-27T11:05:43.605Z,38.02
2018-04-27T11:06:43.829Z,36.99
2018-04-27T11:07:44.060Z,37.85
2018-04-27T11:08:44.290Z,38.91
2018-04-27T11:09:44.528Z,38.60
2018-04-27T11:10:44.757Z,39.78
2018-04-27T11:11:44.982Z,40.83
2018-04-27T11:12:45.213Z,38.91
2018-04-27T11:13:45.451Z,38.16
2018-04-27T11:14:45.689Z,38.93
2018-04-27T11:15:45.913Z,37.30
2018-04-27T11:16:46.201Z,36.33
2018-04-27T11:17:46.374Z,35.85
2018-04-27T11:18:46.605Z,35.47
2018-04-27T11:19:46.836Z,36.93
2018-04-27T11:20:47.069Z,38.37
2018-04-27T11:21:47.298Z,35.39
2018-04-27T11:22:47.525Z,34.62
2018-04-27T11:23:47.767Z,34.16
2018-04-27T11:24:47.993Z,32.33
2018-04-27T11:25:48.262Z,32.62
2018-04-27T11:26:48.462Z,33.69
2018-04-27T11:27:48.686Z,33.48
2018-04-27T11:28:48.923Z,32.43
2018-04-27T11:29:49.158Z,32.14
2018-04-27T11:30:49.387Z,32.23
2018-04-27T11:31:49.623Z,31.75
2018-04-27T11:32:49.856Z,31.85
2018-04-27T11:33:50.089Z,33.20
2018-04-27T11:34:50.326Z,32.14
2018-04-27T11:35:50.563Z,32.71
2018-04-27T11:36:50.787Z,32.03
2018-04-27T11:37:51.021Z,33.39
2018-04-27T11:38:51.262Z,34.16
2018-04-27T11:39:51.493Z,33.39
2018-04-27T11:40:51.714Z,34.16
2018-04-27T11:41:51.963Z,33.39
2018-04-27T11:42:52.197Z,32.43
2018-04-27T11:43:52.436Z,31.95
2018-04-27T11:44:52.670Z,33.10
2018-04-27T11:45:52.903Z,32.62
2018-04-27T11:46:53.135Z,31.37
2018-04-27T11:47:53.372Z,30.02
2018-04-27T11:48:53.608Z,30.88
2018-04-27T11:49:53.848Z,31.56
2018-04-27T11:50:54.061Z,31.65
2018-04-27T11:51:54.297Z,31.95
2018-04-27T11:52:54.532Z,32.81
2018-04-27T11:53:54.765Z,33.58
2018-04-27T11:54:55.000Z,33.48
2018-04-27T11:55:55.223Z,33.97
2018-04-27T11:56:55.459Z,34.35
2018-04-27T11:57:55.693Z,33.58
2018-04-27T11:58:55.922Z,32.71
2018-04-27T11:59:56.156Z,32.04
2018-04-27T12:00:56.389Z,33.40
2018-04-27T12:01:56.622Z,32.73
2018-04-27T12:02:56.860Z,32.04
2018-04-27T12:03:57.099Z,31.29
2018-04-27T12:04:57.320Z,32.06
2018-04-27T12:05:57.552Z,31.46
2018-04-27T12:06:57.782Z,32.92
2018-04-27T12:07:58.018Z,34.56
2018-04-27T12:08:58.257Z,34.27
2018-04-27T12:09:58.494Z,32.25
2018-04-27T12:10:58.718Z,33.02
2018-04-27T12:11:58.954Z,32.54
2018-04-27T12:12:59.193Z,32.06
2018-04-27T12:13:59.432Z,33.89
2018-04-27T12:14:59.654Z,34.37
2018-04-27T12:15:59.893Z,34.66
2018-04-27T12:17:00.131Z,35.64
2018-04-27T12:18:00.366Z,33.69
2018-04-27T12:19:00.592Z,33.00
2018-04-27T12:20:00.823Z,33.00
2018-04-27T12:21:01.056Z,33.20
2018-04-27T12:22:01.299Z,33.98
2018-04-27T12:23:01.552Z,33.69
2018-04-27T12:24:01.804Z,33.97
2018-04-27T12:25:02.043Z,33.40
2018-04-27T12:26:02.268Z,34.37
2018-04-27T12:27:02.497Z,33.50
2018-04-27T12:28:02.726Z,31.48
2018-04-27T12:29:02.964Z,32.64
2018-04-27T12:30:03.198Z,31.95
2018-04-27T12:31:03.426Z,33.00
2018-04-27T12:32:03.672Z,32.43
2018-04-27T12:33:03.927Z,32.14
2018-04-27T12:34:04.134Z,33.48
2018-04-27T12:35:04.373Z,33.58
2018-04-27T12:36:04.604Z,34.06
2018-04-27T12:37:04.840Z,33.79
2018-04-27T12:38:05.073Z,33.50
2018-04-27T12:39:05.306Z,34.56
2018-04-27T12:40:05.542Z,33.79
2018-04-27T12:41:05.767Z,32.06
2018-04-27T12:42:05.996Z,32.62
2018-04-27T12:43:06.227Z,33.98
2018-04-27T12:44:06.455Z,34.56
2018-04-27T12:45:06.758Z,33.61
2018-04-27T12:46:06.921Z,34.00
2018-04-27T12:47:07.151Z,35.44
2018-04-27T12:48:07.388Z,33.02
2018-04-27T12:49:07.630Z,32.73
2018-04-27T12:50:07.848Z,32.34
2018-04-27T12:51:08.081Z,33.13
2018-04-27T12:52:08.393Z,32.25
2018-04-27T12:53:08.545Z,33.21
2018-04-27T12:54:08.782Z,33.12
2018-04-27T12:55:09.011Z,32.92